createdAt,value
2023-01-02T00:02:06.940Z,8.0
2023-01-02T00:07:13.157Z,7.0
2023-01-02T00:12:19.369Z,8.0
2023-01-02T00:17:25.578Z,7.0
2023-01-02T00:22:30.834Z,7.0
2023-01-02T00:27:37.020Z,7.0
2023-01-02T00:32:43.226Z,7.0
2023-01-02T00:37:49.447Z,8.0
2023-01-02T00:42:55.661Z,6.0
2023-01-02T00:48:01.872Z,6.0
2023-01-02T00:53:08.090Z,7.0
2023-01-02T00:58:14.307Z,7.0
2023-01-02T01:03:20.525Z,8.0
2023-01-02T01:08:26.734Z,8.0
2023-01-02T01:13:32.953Z,7.0
2023-01-02T01:18:39.172Z,7.5
2023-01-02T01:23:45.394Z,7.0
2023-01-02T01:28:51.601Z,7.5
2023-01-02T01:33:57.867Z,6.0
2023-01-02T01:39:04.031Z,6.0
2023-01-02T01:44:10.265Z,6.0
2023-01-02T01:49:16.456Z,7.0
2023-01-02T01:54:22.670Z,7.0
2023-01-02T01:59:28.890Z,8.0
2023-01-02T02:04:35.095Z,6.0
2023-01-02T02:09:41.303Z,7.0
2023-01-02T02:14:47.513Z,6.5
2023-01-02T02:19:53.745Z,5.0
2023-01-02T02:24:59.958Z,7.0
2023-01-02T02:30:06.141Z,5.0
2023-01-02T02:35:12.363Z,6.0
2023-01-02T02:40:18.597Z,6.0
2023-01-02T02:45:24.797Z,7.0
2023-01-02T02:50:31.012Z,6.0
2023-01-02T02:55:37.354Z,7.0
2023-01-02T03:00:43.465Z,7.0
2023-01-02T03:05:49.650Z,6.0
2023-01-02T03:10:55.998Z,6.0
2023-01-02T03:16:02.076Z,7.0
2023-01-02T03:21:08.487Z,4.0
2023-01-02T03:26:14.495Z,8.0
2023-01-02T03:31:20.713Z,7.0
2023-01-02T03:36:26.928Z,8.0
2023-01-02T03:41:33.331Z,5.5
2023-01-02T03:46:39.382Z,4.0
2023-01-02T03:51:45.573Z,7.5
2023-01-02T03:56:51.799Z,5.5
2023-01-02T04:01:58.138Z,5.0
2023-01-02T04:07:04.211Z,7.0
2023-01-02T04:12:10.408Z,7.0
2023-01-02T04:17:16.651Z,6.0
2023-01-02T04:22:22.847Z,5.0
2023-01-02T04:27:29.071Z,5.0
2023-01-02T04:32:35.274Z,4.5
2023-01-02T04:37:41.496Z,6.0
2023-01-02T04:42:47.720Z,5.0
2023-01-02T04:47:53.944Z,6.5
2023-01-02T04:53:00.144Z,6.0
2023-01-02T04:58:06.350Z,6.0
2023-01-02T05:03:12.619Z,4.0
2023-01-02T05:08:18.797Z,5.0
2023-01-02T05:13:25.109Z,5.0
2023-01-02T05:18:31.214Z,5.0
2023-01-02T05:23:37.427Z,4.0
2023-01-02T05:28:43.635Z,5.0
2023-01-02T05:33:49.855Z,5.0
2023-01-02T05:38:56.065Z,5.0
2023-01-02T05:44:02.301Z,5.0
2023-01-02T05:49:08.496Z,5.0
2023-01-02T05:54:13.726Z,6.0
2023-01-02T05:59:19.941Z,4.5
2023-01-02T06:04:26.175Z,5.0
2023-01-02T06:09:32.368Z,5.0
2023-01-02T06:14:38.591Z,4.0
2023-01-02T06:19:50.209Z,5.5
2023-01-02T06:24:51.023Z,4.0
2023-01-02T06:29:57.203Z,4.0
2023-01-02T06:35:03.414Z,4.0
2023-01-02T06:40:09.633Z,5.0
2023-01-02T06:45:15.831Z,5.0
2023-01-02T06:50:24.804Z,5.0
2023-01-02T06:55:28.313Z,5.5
2023-01-02T07:00:34.572Z,3.0
2023-01-02T07:05:40.702Z,2.0
2023-01-02T07:10:52.630Z,0.5
2023-01-02T07:15:53.127Z,1.0
2023-01-02T07:20:59.379Z,0.0
2023-01-02T07:26:05.552Z,0.0
2023-01-02T07:31:11.761Z,0.0
2023-01-02T07:36:17.963Z,0.0
2023-01-02T07:41:24.289Z,1.0
2023-01-02T07:51:36.588Z,1.0
2023-01-02T07:56:42.795Z,2.0
2023-01-02T08:01:49.271Z,3.0
2023-01-02T08:06:55.213Z,4.5
2023-01-02T08:12:01.422Z,4.0
2023-01-02T08:17:07.664Z,3.5
2023-01-02T08:22:13.834Z,4.0
2023-01-02T08:27:20.051Z,4.0
2023-01-02T08:32:26.275Z,4.0
2023-01-02T08:37:32.463Z,4.0
2023-01-02T08:42:38.849Z,4.0
2023-01-02T08:47:44.875Z,4.0
2023-01-02T08:52:51.077Z,3.0
2023-01-02T08:57:57.293Z,4.0
2023-01-02T09:03:03.624Z,3.5
2023-01-02T09:08:09.712Z,3.0
2023-01-02T09:13:15.920Z,4.0
2023-01-02T09:18:27.349Z,4.0
2023-01-02T09:23:28.331Z,4.0
2023-01-02T09:28:34.537Z,4.0
2023-01-02T09:33:40.770Z,4.0
2023-01-02T09:38:46.957Z,4.0
2023-01-02T09:43:53.161Z,4.0
2023-01-02T09:48:59.377Z,4.0
2023-01-02T09:54:05.581Z,4.0
2023-01-02T09:59:11.793Z,4.0
2023-01-02T10:04:18.093Z,4.5
2023-01-02T10:09:24.221Z,5.0
2023-01-02T10:14:36.320Z,5.0
2023-01-02T10:19:36.619Z,5.0
2023-01-02T10:24:42.995Z,5.0
2023-01-02T10:29:49.044Z,4.0
2023-01-02T10:34:55.243Z,5.0
2023-01-02T10:40:01.475Z,5.0
2023-01-02T10:45:07.673Z,5.0
2023-01-02T10:50:13.870Z,5.0
2023-01-02T10:55:20.133Z,5.0
2023-01-02T11:00:28.307Z,4.0
2023-01-02T11:05:32.553Z,4.0
2023-01-02T11:10:38.743Z,4.0
2023-01-02T11:15:44.909Z,4.0
2023-01-02T11:20:51.136Z,5.0
2023-01-02T11:25:56.340Z,4.5
2023-01-02T11:31:02.602Z,5.0
2023-01-02T11:36:08.759Z,5.0
2023-01-02T11:41:14.969Z,6.0
2023-01-02T11:46:21.234Z,6.0
2023-01-02T11:51:27.379Z,6.0
2023-01-02T11:56:33.608Z,6.0
2023-01-02T12:01:39.902Z,7.0
2023-01-02T12:06:46.142Z,6.0
2023-01-02T12:11:52.213Z,6.0
2023-01-02T12:16:58.505Z,7.0
2023-01-02T12:22:04.639Z,8.0
2023-01-02T12:27:10.836Z,9.0
2023-01-02T12:32:17.104Z,9.0
2023-01-02T12:37:23.260Z,10.0
2023-01-02T12:42:29.486Z,10.0
2023-01-02T12:47:35.679Z,10.0
2023-01-02T12:52:41.876Z,11.0
2023-01-02T12:57:48.079Z,11.0
2023-01-02T13:02:54.407Z,12.0
2023-01-02T13:08:00.508Z,12.0
2023-01-02T13:13:06.721Z,12.0
2023-01-02T13:18:12.914Z,12.0
2023-01-02T13:23:19.137Z,13.0
2023-01-02T13:28:25.358Z,13.0
2023-01-02T13:33:31.542Z,13.0
2023-01-02T13:38:37.761Z,14.0
2023-01-02T13:43:43.961Z,13.0
2023-01-02T13:48:50.165Z,14.0
2023-01-02T13:53:56.374Z,13.0
2023-01-02T13:59:02.580Z,13.0
2023-01-02T14:04:08.791Z,13.0
2023-01-02T14:09:14.997Z,14.0
2023-01-02T14:14:21.210Z,13.0
2023-01-02T14:19:27.443Z,12.0
2023-01-02T14:24:33.621Z,11.0
2023-01-02T14:29:39.830Z,11.0
2023-01-02T14:34:46.053Z,10.0
2023-01-02T14:39:52.249Z,9.0
2023-01-02T14:44:58.494Z,11.0
2023-01-02T14:50:04.671Z,9.0
2023-01-02T14:55:10.875Z,7.0
2023-01-02T15:00:17.154Z,8.0
2023-01-02T15:05:23.308Z,8.0
2023-01-02T15:10:29.496Z,7.0
2023-01-02T15:15:35.795Z,6.0
2023-01-02T15:20:41.906Z,8.0
2023-01-02T15:25:48.120Z,6.0
2023-01-02T15:30:54.398Z,7.0
2023-01-02T15:36:00.538Z,5.0
2023-01-02T15:41:06.753Z,6.0
2023-01-02T15:46:12.983Z,5.0
2023-01-02T15:56:25.367Z,4.0
2023-01-02T16:01:31.740Z,5.0
2023-01-02T16:06:37.805Z,5.0
2023-01-02T16:11:43.987Z,5.0
2023-01-02T16:16:50.233Z,5.0
2023-01-02T16:21:56.410Z,5.0
2023-01-02T16:27:02.720Z,5.0
2023-01-02T16:32:08.827Z,5.0
2023-01-02T16:37:15.083Z,6.0
2023-01-02T16:42:21.266Z,5.5
2023-01-02T16:47:27.448Z,5.0
2023-01-02T16:52:33.656Z,4.0
2023-01-02T16:57:38.887Z,5.0
2023-01-02T17:02:45.209Z,4.5
2023-01-02T17:07:51.312Z,4.5
2023-01-02T17:12:57.615Z,5.0
2023-01-02T17:18:03.709Z,5.0
2023-01-02T17:23:09.919Z,5.0
2023-01-02T17:28:15.145Z,5.0
2023-01-02T17:33:21.358Z,6.0
2023-01-02T17:38:27.559Z,6.0
2023-01-02T17:43:33.769Z,7.0
2023-01-02T17:48:40.010Z,8.0
2023-01-02T17:53:46.317Z,9.0
2023-01-02T17:58:52.406Z,10.0
2023-01-02T18:03:58.600Z,11.0
2023-01-02T18:09:04.817Z,12.0
2023-01-02T18:14:11.015Z,12.0
2023-01-02T18:19:17.228Z,11.0
2023-01-02T18:24:23.465Z,12.0
2023-01-02T18:29:29.638Z,10.0
2023-01-02T18:39:42.070Z,10.0
2023-01-02T18:44:48.307Z,11.0
2023-01-02T18:49:54.469Z,11.0
2023-01-02T18:55:00.728Z,11.0
2023-01-02T19:00:06.886Z,9.0
2023-01-02T19:05:13.128Z,9.0
2023-01-02T19:10:19.313Z,8.0
2023-01-02T19:15:25.512Z,9.0
2023-01-02T19:20:31.720Z,9.0
2023-01-02T19:25:37.930Z,9.0
2023-01-02T19:30:44.167Z,9.0
2023-01-02T19:35:50.366Z,10.0
2023-01-02T19:40:56.546Z,10.0
2023-01-02T19:46:02.821Z,10.0
2023-01-02T19:51:08.963Z,9.0
2023-01-02T19:56:15.185Z,9.0
2023-01-02T20:01:21.494Z,10.0
2023-01-02T20:06:27.585Z,12.0
2023-01-02T20:11:33.791Z,13.0
2023-01-02T20:16:40.127Z,11.0
2023-01-02T20:21:46.222Z,11.0
2023-01-02T20:26:52.424Z,10.0
2023-01-02T20:31:58.628Z,10.0
2023-01-02T20:37:04.857Z,10.0
2023-01-02T20:42:13.499Z,12.0
2023-01-02T20:47:17.555Z,11.0
2023-01-02T20:52:23.465Z,11.0
2023-01-02T20:57:29.700Z,12.0
2023-01-02T21:02:36.031Z,14.0
2023-01-02T21:07:42.080Z,13.0
2023-01-02T21:12:48.292Z,12.5
2023-01-02T21:17:54.505Z,13.0
2023-01-02T21:23:00.730Z,12.0
2023-01-02T21:28:06.914Z,13.0
2023-01-02T21:33:13.119Z,13.0
2023-01-02T21:38:19.335Z,14.0
2023-01-02T21:43:25.541Z,15.0
2023-01-02T21:48:31.743Z,17.0
2023-01-02T21:53:37.979Z,16.0
2023-01-02T21:58:44.171Z,15.0
2023-01-02T22:03:50.365Z,16.0
2023-01-02T22:08:56.575Z,17.0
2023-01-02T22:14:02.787Z,18.0
2023-01-02T22:19:09.001Z,19.0
2023-01-02T22:24:15.207Z,19.0
2023-01-02T22:29:21.407Z,19.0
2023-01-02T22:34:27.616Z,19.5
2023-01-02T22:39:33.901Z,20.0
2023-01-02T22:44:40.032Z,18.0
2023-01-02T22:49:46.239Z,18.0
2023-01-02T22:54:52.448Z,18.0
2023-01-02T22:59:57.663Z,18.0
2023-01-02T23:05:03.936Z,17.0
2023-01-02T23:10:10.101Z,18.0
2023-01-02T23:15:16.299Z,17.0
2023-01-02T23:20:22.551Z,17.0
2023-01-02T23:25:28.701Z,18.0
2023-01-02T23:30:34.924Z,18.0
2023-01-02T23:35:41.127Z,17.0
2023-01-02T23:40:47.331Z,17.0
2023-01-02T23:45:53.621Z,17.0
2023-01-02T23:50:59.746Z,16.0
2023-01-02T23:56:05.951Z,15.0
